Time;durP1;ratioP1;P1;durP2;ratioP2;P2;SDS_P1;SDS_P2;PMS_P1;PMS_P2;Temp;Humidity;BMP_temperature;BMP_pressure;BME280_temperature;BME280_humidity;BME280_pressure;Samples;Min_cycle;Max_cycle;Signal;HPM_P1;HPM_P2
2023/06/02 00:00:01;;;;;;;2.30;1.87;;;19.60;55.20;18.70;96229.00;;;;6135250;23;20175;-81
2023/06/02 00:02:33;;;;;;;2.43;1.53;;;19.60;55.20;18.70;96238.00;;;;6136908;23;20665;-81
2023/06/02 00:05:03;;;;;;;1.87;1.77;;;19.50;55.20;18.60;96237.00;;;;6137656;23;20198;-80
2023/06/02 00:07:31;;;;;;;1.60;1.50;;;19.50;55.40;18.60;96244.00;;;;6111397;23;20163;-81
2023/06/02 00:09:58;;;;;;;1.80;1.70;;;19.50;55.30;18.50;96236.00;;;;6138249;23;20179;-82
2023/06/02 00:12:26;;;;;;;1.80;1.60;;;19.40;55.30;18.50;96237.00;;;;6110078;23;20646;-81
2023/06/02 00:15:00;;;;;;;1.67;1.57;;;19.40;55.50;18.40;96229.00;;;;6110621;23;20257;-81
2023/06/02 00:17:28;;;;;;;1.90;1.73;;;19.40;55.80;18.40;96229.00;;;;6086169;23;20210;-80
2023/06/02 00:19:56;;;;;;;1.90;1.63;;;19.30;55.50;18.30;96235.00;;;;6109729;23;20179;-81
2023/06/02 00:22:29;;;;;;;3.17;1.60;;;19.30;55.50;18.30;96230.00;;;;6137861;23;20183;-81
2023/06/02 00:24:56;;;;;;;1.47;1.37;;;19.20;55.60;18.20;96228.00;;;;6137412;23;20198;-81
2023/06/02 00:27:24;;;;;;;1.93;1.73;;;19.20;55.70;18.20;96230.00;;;;6140061;23;20189;-81
2023/06/02 00:29:51;;;;;;;1.90;1.60;;;19.10;55.90;18.20;96229.00;;;;6139271;23;20194;-81
2023/06/02 00:32:19;;;;;;;1.63;1.53;;;19.10;55.90;18.10;96233.00;;;;6140216;23;20178;-81
2023/06/02 00:34:46;;;;;;;1.97;1.70;;;19.00;55.90;18.10;96230.00;;;;6115791;23;20226;-80
2023/06/02 00:37:14;;;;;;;2.03;1.70;;;19.00;56.00;18.00;96234.00;;;;6114870;23;20182;-81
2023/06/02 00:39:43;;;;;;;2.17;1.57;;;19.00;56.20;18.00;96233.00;;;;6141830;23;20175;-81
2023/06/02 00:42:12;;;;;;;2.00;1.77;;;18.90;56.30;18.00;96228.00;;;;6142921;23;20179;-80
2023/06/02 00:44:39;;;;;;;4.87;1.70;;;18.90;56.50;18.00;96235.00;;;;6143632;23;20203;-80
2023/06/02 00:47:09;;;;;;;2.33;1.90;;;18.90;56.60;17.90;96223.00;;;;6142818;23;20174;-82
2023/06/02 00:49:36;;;;;;;2.47;1.77;;;18.80;56.60;17.90;96235.00;;;;6144958;23;20186;-80
2023/06/02 00:52:05;;;;;;;2.30;1.40;;;18.80;56.70;17.90;96236.00;;;;6120103;23;20174;-81
2023/06/02 00:54:32;;;;;;;1.63;1.53;;;18.80;56.80;17.90;96231.00;;;;6122176;23;20198;-82
2023/06/02 00:57:01;;;;;;;2.00;1.67;;;18.70;56.70;17.80;96227.00;;;;6120228;23;20175;-81
2023/06/02 00:59:30;;;;;;;2.73;1.80;;;18.70;56.80;17.80;96223.00;;;;6144601;23;20170;-82
2023/06/02 01:01:57;;;;;;;3.00;1.53;;;18.70;56.90;17.80;96219.00;;;;6136025;23;20174;-81
2023/06/02 01:04:25;;;;;;;2.10;1.70;;;18.70;56.90;17.70;96227.00;;;;6080593;23;20959;-81
2023/06/02 01:06:55;;;;;;;2.53;1.57;;;18.60;56.80;17.70;96213.00;;;;6132514;23;20729;-81
2023/06/02 01:09:24;;;;;;;4.60;1.83;;;18.60;56.80;17.60;96229.00;;;;6082722;23;20178;-81
2023/06/02 01:11:52;;;;;;;1.70;1.60;;;18.60;57.00;17.60;96215.00;;;;6133851;23;20230;-81
2023/06/02 01:14:20;;;;;;;2.07;1.63;;;18.50;57.00;17.60;96220.00;;;;6132517;23;20187;-81
2023/06/02 01:16:49;;;;;;;2.10;1.63;;;18.50;57.20;17.60;96220.00;;;;6133191;23;20198;-81
2023/06/02 01:19:21;;;;;;;2.13;1.80;;;18.50;57.30;17.60;96215.00;;;;6083822;23;20250;-81
2023/06/02 01:21:59;;;;;;;1.90;1.80;;;18.50;57.30;17.60;96216.00;;;;6134384;23;20167;-81
2023/06/02 01:24:31;;;;;;;2.77;1.90;;;18.40;57.30;17.50;96228.00;;;;6133611;23;20198;-81
2023/06/02 01:26:59;;;;;;;2.10;1.90;;;18.40;57.30;17.50;96218.00;;;;6135844;23;20155;-82
2023/06/02 01:29:27;;;;;;;2.73;1.73;;;18.40;57.30;17.50;96219.00;;;;6107864;23;21065;-81
2023/06/02 01:31:57;;;;;;;2.90;1.90;;;18.40;57.40;17.50;96220.00;;;;6134790;23;20225;-81
2023/06/02 01:34:37;;;;;;;1.80;1.70;;;18.30;57.50;17.40;96222.00;;;;6108683;23;20202;-81
2023/06/02 01:37:06;;;;;;;2.10;2.00;;;18.30;57.80;17.40;96215.00;;;;6107524;23;20171;-81
2023/06/02 01:39:37;;;;;;;2.67;2.00;;;18.30;57.60;17.40;96218.00;;;;6108976;23;20178;-81
2023/06/02 01:42:07;;;;;;;2.03;1.90;;;18.30;57.70;17.40;96219.00;;;;6135019;23;20190;-81
2023/06/02 01:44:36;;;;;;;2.07;1.87;;;18.30;57.70;17.40;96227.00;;;;6108890;23;20704;-81
2023/06/02 01:47:04;;;;;;;2.30;2.10;;;18.30;57.80;17.40;96212.00;;;;6134103;23;20194;-81
2023/06/02 01:49:31;;;;;;;2.03;1.93;;;18.20;57.80;17.30;96220.00;;;;6136183;23;20210;-81
2023/06/02 01:51:59;;;;;;;3.40;2.00;;;18.20;57.80;17.30;96213.00;;;;6135036;23;20175;-81
2023/06/02 01:54:26;;;;;;;2.33;1.63;;;18.20;57.90;17.30;96212.00;;;;6135010;23;20261;-81
2023/06/02 01:56:55;;;;;;;2.00;1.73;;;18.20;57.90;17.30;96210.00;;;;6136292;23;20198;-81
2023/06/02 01:59:22;;;;;;;1.90;1.70;;;18.10;57.90;17.30;96215.00;;;;6136202;23;20194;-81
2023/06/02 02:01:52;;;;;;;2.10;1.90;;;18.10;57.90;17.30;96214.00;;;;6110265;23;20254;-81
2023/06/02 02:04:20;;;;;;;1.73;1.63;;;18.10;57.90;17.20;96216.00;;;;6108625;23;20195;-81
2023/06/02 02:06:49;;;;;;;1.63;1.53;;;18.10;57.90;17.20;96212.00;;;;6080630;23;20519;-81
2023/06/02 02:09:17;;;;;;;2.07;1.80;;;18.10;58.10;17.20;96211.00;;;;6103870;23;20182;-81
2023/06/02 02:11:44;;;;;;;1.60;1.50;;;18.10;58.60;17.20;96207.00;;;;6105735;23;20215;-80
2023/06/02 02:14:13;;;;;;;2.50;1.70;;;18.00;58.00;17.20;96202.00;;;;6106556;23;20202;-81
2023/06/02 02:16:45;;;;;;;1.40;1.30;;;18.00;58.00;17.20;96210.00;;;;6103372;23;20171;-80
2023/06/02 02:19:13;;;;;;;1.93;1.83;;;18.00;58.00;17.10;96207.00;;;;6103891;23;20227;-81
2023/06/02 02:21:41;;;;;;;3.80;2.30;;;18.00;58.00;17.10;96202.00;;;;6104946;23;20175;-81
2023/06/02 02:24:09;;;;;;;1.80;1.70;;;18.00;58.10;17.10;96196.00;;;;6106465;23;20192;-82
2023/06/02 02:26:36;;;;;;;1.67;1.57;;;18.00;58.10;17.10;96201.00;;;;6084265;23;20167;-80
2023/06/02 02:29:04;;;;;;;1.67;1.50;;;18.00;58.20;17.00;96202.00;;;;6109416;23;20175;-81
2023/06/02 02:31:33;;;;;;;2.13;1.80;;;17.90;58.20;17.00;96202.00;;;;6110052;23;20611;-82
2023/06/02 02:34:00;;;;;;;1.63;1.53;;;17.90;58.20;17.00;96201.00;;;;6107474;23;20218;-82
2023/06/02 02:36:28;;;;;;;1.70;1.60;;;17.90;58.20;16.90;96205.00;;;;6110852;23;20200;-81
2023/06/02 02:38:55;;;;;;;2.63;1.50;;;17.90;58.20;16.90;96198.00;;;;6110324;23;20175;-81
2023/06/02 02:41:22;;;;;;;1.60;1.50;;;17.90;58.20;16.90;96193.00;;;;6108896;23;20191;-82
2023/06/02 02:43:49;;;;;;;2.23;1.77;;;17.80;58.10;16.90;96192.00;;;;6111505;23;20202;-82
2023/06/02 02:46:17;;;;;;;1.70;1.60;;;17.80;58.20;16.90;96196.00;;;;6111832;23;20237;-81
2023/06/02 02:48:46;;;;;;;1.80;1.57;;;17.80;58.20;16.80;96195.00;;;;6110464;23;20183;-81
2023/06/02 02:51:14;;;;;;;3.47;2.17;;;17.80;58.30;16.80;96196.00;;;;6110989;23;20175;-81
2023/06/02 02:53:41;;;;;;;1.80;1.50;;;17.70;58.30;16.80;96196.00;;;;6109750;23;20195;-81
2023/06/02 02:56:08;;;;;;;1.70;1.60;;;17.70;58.40;16.70;96202.00;;;;6110547;23;20180;-82
2023/06/02 02:58:37;;;;;;;2.30;2.10;;;17.70;58.40;16.70;96202.00;;;;6112485;23;20179;-81
2023/06/02 03:01:05;;;;;;;1.53;1.43;;;17.70;58.50;16.70;96207.00;;;;6110076;23;20222;-81
2023/06/02 03:03:37;;;;;;;2.60;1.30;;;17.60;58.50;16.60;96201.00;;;;6086979;23;20251;-82
2023/06/02 03:06:08;;;;;;;1.67;1.50;;;17.60;58.60;16.60;96202.00;;;;6114756;23;20205;-80
2023/06/02 03:08:37;;;;;;;2.27;1.70;;;17.60;58.70;16.50;96202.00;;;;6115312;23;20433;-82
2023/06/02 03:11:05;;;;;;;1.67;1.53;;;17.60;58.60;16.50;96205.00;;;;6116469;23;20245;-81
2023/06/02 03:13:32;;;;;;;1.57;1.47;;;17.50;58.50;16.50;96204.00;;;;6142230;23;20190;-81
2023/06/02 03:16:00;;;;;;;2.20;1.43;;;17.50;58.60;16.40;96205.00;;;;6117485;23;20174;-82
2023/06/02 03:18:27;;;;;;;1.53;1.43;;;17.50;58.60;16.40;96204.00;;;;6144190;23;20171;-81
2023/06/02 03:20:58;;;;;;;1.30;1.20;;;17.40;58.60;16.40;96190.00;;;;6148240;23;20887;-81
2023/06/02 03:23:28;;;;;;;1.70;1.60;;;17.40;58.70;16.30;96196.00;;;;6147888;23;20210;-82
2023/06/02 03:25:56;;;;;;;1.90;1.70;;;17.40;58.80;16.30;96198.00;;;;6148330;23;20209;-82
2023/06/02 03:28:23;;;;;;;1.90;1.70;;;17.30;58.80;16.30;96194.00;;;;6142405;23;20171;-81
2023/06/02 03:30:51;;;;;;;1.67;1.57;;;17.30;58.90;16.20;96192.00;;;;6112633;23;20175;-81
2023/06/02 03:33:18;;;;;;;2.10;1.90;;;17.20;59.00;16.20;96199.00;;;;6111626;23;20190;-81
2023/06/02 03:35:45;;;;;;;1.53;1.43;;;17.20;59.10;16.20;96201.00;;;;6137482;23;20212;-82
2023/06/02 03:38:12;;;;;;;2.43;1.70;;;17.20;59.10;16.20;96206.00;;;;6138176;23;20230;-82
2023/06/02 03:40:41;;;;;;;2.57;1.83;;;17.20;59.10;16.10;96203.00;;;;6112021;23;20219;-81
2023/06/02 03:43:09;;;;;;;1.67;1.57;;;17.10;59.20;16.10;96215.00;;;;6138166;23;20191;-82
2023/06/02 03:45:36;;;;;;;1.73;1.63;;;17.10;59.20;16.10;96212.00;;;;6139269;23;20281;-82
2023/06/02 03:48:04;;;;;;;2.20;1.60;;;17.10;59.40;16.10;96209.00;;;;6113383;23;20198;-82
2023/06/02 03:50:32;;;;;;;3.10;1.63;;;17.10;59.40;16.00;96216.00;;;;6138800;23;20182;-82
2023/06/02 03:53:01;;;;;;;3.37;2.50;;;17.00;59.30;16.00;96218.00;;;;6111173;23;20186;-80
2023/06/02 03:55:29;;;;;;;2.07;1.80;;;17.00;59.40;16.00;96218.00;;;;6137608;23;20183;-82
2023/06/02 03:57:58;;;;;;;2.23;1.97;;;17.00;59.50;16.00;96218.00;;;;6136997;23;20189;-82
2023/06/02 04:00:25;;;;;;;2.10;2.00;;;16.90;59.60;16.00;96219.00;;;;6136721;23;20194;-81
2023/06/02 04:02:53;;;;;;;1.87;1.70;;;16.90;59.60;16.00;96221.00;;;;6109989;23;20685;-82
2023/06/02 04:05:20;;;;;;;1.97;1.87;;;16.90;59.70;15.90;96220.00;;;;6136325;23;20948;-81
2023/06/02 04:07:48;;;;;;;1.63;1.53;;;16.90;59.90;15.90;96219.00;;;;6137703;23;20202;-82
2023/06/02 04:10:16;;;;;;;2.80;2.00;;;16.90;60.00;15.90;96227.00;;;;6137854;23;20182;-81
2023/06/02 04:12:43;;;;;;;2.37;1.70;;;16.90;60.00;16.00;96220.00;;;;6137433;23;20179;-82
2023/06/02 04:15:12;;;;;;;3.87;2.03;;;16.90;60.20;16.00;96222.00;;;;6111390;23;20198;-81
2023/06/02 04:17:39;;;;;;;1.77;1.67;;;16.90;60.50;16.00;96223.00;;;;6138601;23;20175;-81
2023/06/02 04:20:08;;;;;;;2.10;1.90;;;16.90;60.50;16.00;96223.00;;;;6139344;23;20206;-81
2023/06/02 04:22:36;;;;;;;2.03;1.90;;;16.90;60.50;16.00;96217.00;;;;6138654;23;20178;-82
2023/06/02 04:25:05;;;;;;;2.17;1.97;;;16.90;60.60;16.00;96223.00;;;;6112034;23;20261;-81
2023/06/02 04:27:33;;;;;;;2.20;2.00;;;16.90;60.70;16.00;96222.00;;;;6113001;23;20678;-82
2023/06/02 04:30:01;;;;;;;1.90;1.80;;;16.90;60.70;16.00;96219.00;;;;6139669;23;20174;-82
2023/06/02 04:32:32;;;;;;;3.50;1.70;;;16.90;60.70;16.00;96231.00;;;;6139827;23;20159;-81
2023/06/02 04:35:00;;;;;;;1.90;1.80;;;16.90;60.80;16.00;96233.00;;;;6089830;23;20222;-82
2023/06/02 04:37:27;;;;;;;3.33;1.90;;;16.90;60.80;16.10;96235.00;;;;6138259;23;20669;-82
2023/06/02 04:39:55;;;;;;;2.83;2.27;;;16.90;60.80;16.10;96237.00;;;;6139536;23;20198;-82
2023/06/02 04:42:22;;;;;;;2.90;2.37;;;17.00;61.00;16.10;96247.00;;;;6139346;23;20171;-82
2023/06/02 04:44:51;;;;;;;2.40;2.30;;;17.00;61.10;16.20;96239.00;;;;6138860;23;20215;-82
2023/06/02 04:47:18;;;;;;;3.40;2.20;;;17.00;61.10;16.20;96243.00;;;;6139228;23;20175;-81
2023/06/02 04:49:47;;;;;;;2.27;2.07;;;17.10;61.20;16.20;96241.00;;;;6140528;23;20171;-81
2023/06/02 04:52:14;;;;;;;2.70;2.30;;;17.10;61.50;16.20;96239.00;;;;6139907;23;20187;-81
2023/06/02 04:54:44;;;;;;;2.57;2.10;;;17.10;61.40;16.30;96243.00;;;;6114745;23;20197;-80
2023/06/02 04:57:11;;;;;;;2.60;2.40;;;17.10;61.40;16.30;96242.00;;;;6139525;23;20551;-82
2023/06/02 04:59:38;;;;;;;2.50;2.30;;;17.20;61.40;16.40;96239.00;;;;6089892;23;20840;-81
2023/06/02 05:02:06;;;;;;;2.97;2.67;;;17.20;61.40;16.40;96246.00;;;;6139338;23;20192;-81
2023/06/02 05:04:35;;;;;;;3.27;2.43;;;17.30;61.40;16.50;96244.00;;;;6088701;23;20201;-82
2023/06/02 05:07:06;;;;;;;2.80;2.60;;;17.30;61.40;16.50;96248.00;;;;6136055;23;20195;-82
2023/06/02 05:09:34;;;;;;;2.53;2.33;;;17.30;61.40;16.60;96256.00;;;;6136864;23;20225;-82
2023/06/02 05:12:02;;;;;;;4.73;2.77;;;17.40;61.30;16.70;96246.00;;;;6089009;23;20654;-82
2023/06/02 05:14:29;;;;;;;3.80;2.77;;;17.40;61.30;16.70;96243.00;;;;6112032;23;20198;-82
2023/06/02 05:16:57;;;;;;;2.90;2.43;;;17.50;61.30;16.80;96237.00;;;;6138953;23;20254;-81
2023/06/02 05:19:24;;;;;;;2.70;2.50;;;17.60;61.10;16.80;96239.00;;;;6139032;23;20171;-82
2023/06/02 05:21:52;;;;;;;2.60;2.40;;;17.60;60.80;16.90;96249.00;;;;6113291;23;20653;-82
2023/06/02 05:24:21;;;;;;;2.87;2.50;;;17.60;60.80;17.00;96250.00;;;;6112932;23;20213;-81
2023/06/02 05:26:49;;;;;;;4.10;2.50;;;17.70;60.70;17.00;96260.00;;;;6112466;23;20201;-82
2023/06/02 05:29:16;;;;;;;3.73;2.63;;;17.80;60.60;17.10;96257.00;;;;6090934;23;20218;-82
2023/06/02 05:31:44;;;;;;;2.53;2.20;;;17.80;60.40;17.20;96272.00;;;;6113676;23;20199;-82
2023/06/02 05:34:12;;;;;;;3.57;2.70;;;17.90;60.60;17.20;96263.00;;;;6139154;23;20199;-82
2023/06/02 05:36:39;;;;;;;2.50;2.30;;;18.00;60.60;17.30;96263.00;;;;6140584;23;20178;-82
2023/06/02 05:39:07;;;;;;;2.77;2.50;;;18.00;60.40;17.40;96270.00;;;;6116430;23;20205;-82
2023/06/02 05:41:37;;;;;;;3.20;2.90;;;18.10;60.30;17.50;96271.00;;;;6143661;23;20181;-82
2023/06/02 05:44:04;;;;;;;2.97;2.67;;;18.20;59.80;17.60;96267.00;;;;6145653;23;20195;-82
2023/06/02 05:46:32;;;;;;;3.13;2.57;;;18.30;59.80;17.70;96268.00;;;;6145215;23;20202;-82
2023/06/02 05:48:59;;;;;;;3.33;2.23;;;18.30;59.60;17.80;96275.00;;;;6097108;23;20175;-83
2023/06/02 05:51:26;;;;;;;3.33;2.97;;;18.40;59.50;17.90;96267.00;;;;6119390;23;20174;-81
2023/06/02 05:53:54;;;;;;;4.53;3.10;;;18.50;59.40;18.00;96272.00;;;;6091038;23;20262;-82
2023/06/02 05:56:21;;;;;;;3.53;2.97;;;18.60;59.20;18.10;96272.00;;;;6081725;23;20205;-81
2023/06/02 05:58:50;;;;;;;3.60;2.97;;;18.70;59.10;18.20;96259.00;;;;6133148;23;20181;-80
2023/06/02 06:01:18;;;;;;;3.27;2.80;;;18.80;59.10;18.30;96265.00;;;;6086056;23;20207;-80
2023/06/02 06:03:45;;;;;;;3.33;3.03;;;18.90;59.00;18.40;96260.00;;;;6137172;23;20222;-80
2023/06/02 06:06:13;;;;;;;2.90;2.67;;;19.00;59.00;18.50;96271.00;;;;6105224;23;20203;-82
2023/06/02 06:08:40;;;;;;;4.50;3.23;;;19.10;59.10;18.60;96275.00;;;;6107396;23;20574;-81
2023/06/02 06:11:07;;;;;;;3.00;2.80;;;19.20;59.60;18.60;96275.00;;;;6106243;23;20659;-82
2023/06/02 06:13:34;;;;;;;4.57;3.03;;;19.20;58.70;18.70;96277.00;;;;6105125;23;20195;-82
2023/06/02 06:16:04;;;;;;;2.83;2.63;;;19.30;58.40;18.80;96278.00;;;;6100942;23;20203;-80
2023/06/02 06:18:31;;;;;;;3.57;2.90;;;19.40;58.60;18.90;96281.00;;;;6101906;23;20230;-82
2023/06/02 06:20:59;;;;;;;3.70;2.80;;;19.50;58.50;18.90;96286.00;;;;6100055;23;20246;-81
2023/06/02 06:23:26;;;;;;;3.13;2.77;;;19.60;58.10;19.00;96290.00;;;;6099930;23;20222;-84
2023/06/02 06:25:54;;;;;;;4.27;3.20;;;19.60;57.70;19.10;96297.00;;;;6098111;23;20281;-84
2023/06/02 06:28:21;;;;;;;3.40;3.10;;;19.70;57.70;19.10;96294.00;;;;6099941;23;20172;-81
2023/06/02 06:30:50;;;;;;;3.13;2.83;;;19.70;57.80;19.20;96287.00;;;;6099443;23;20254;-82
2023/06/02 06:33:19;;;;;;;3.63;2.77;;;19.80;58.00;19.20;96287.00;;;;6100915;23;20266;-82
2023/06/02 06:35:46;;;;;;;3.33;2.77;;;19.80;57.80;19.30;96292.00;;;;6101487;23;20206;-80
2023/06/02 06:38:14;;;;;;;4.20;3.00;;;19.90;57.80;19.40;96291.00;;;;6101144;23;20250;-81
2023/06/02 06:40:41;;;;;;;3.77;2.70;;;20.00;57.70;19.50;96297.00;;;;6100982;23;20532;-81
2023/06/02 06:43:08;;;;;;;2.97;2.67;;;20.00;57.60;19.50;96292.00;;;;6098698;23;20519;-81
2023/06/02 06:45:36;;;;;;;3.60;3.03;;;20.10;57.70;19.60;96294.00;;;;6100431;23;20222;-81
2023/06/02 06:48:06;;;;;;;3.40;3.10;;;20.20;57.40;19.70;96298.00;;;;6098515;23;20226;-82
2023/06/02 06:50:35;;;;;;;3.07;2.80;;;20.20;57.30;19.80;96301.00;;;;6098623;23;20180;-81
2023/06/02 06:53:04;;;;;;;4.67;3.53;;;20.30;57.20;19.80;96303.00;;;;6098091;23;20175;-79
2023/06/02 06:55:31;;;;;;;3.87;2.90;;;20.40;57.20;19.90;96308.00;;;;6098124;23;20182;-80
2023/06/02 06:57:58;;;;;;;3.63;3.10;;;20.40;57.20;20.00;96310.00;;;;6097285;23;20182;-82
2023/06/02 07:00:26;;;;;;;3.17;2.87;;;20.50;57.70;20.10;96312.00;;;;6097663;23;20256;-81
2023/06/02 07:02:53;;;;;;;3.60;3.27;;;20.60;57.20;20.20;96324.00;;;;6097699;23;20171;-82
2023/06/02 07:05:21;;;;;;;4.13;2.67;;;20.70;56.90;20.40;96314.00;;;;6111202;23;20185;-82
2023/06/02 07:07:50;;;;;;;3.70;3.10;;;20.80;57.00;20.50;96321.00;;;;6085702;23;20220;-82
2023/06/02 07:10:17;;;;;;;3.37;3.00;;;20.90;57.10;20.60;96322.00;;;;6134785;23;20258;-82
2023/06/02 07:12:45;;;;;;;3.23;2.93;;;21.00;56.90;20.80;96318.00;;;;6135329;23;20182;-82
2023/06/02 07:15:12;;;;;;;3.67;3.10;;;21.20;57.30;20.90;96315.00;;;;6135671;23;20249;-82
2023/06/02 07:17:41;;;;;;;3.47;2.80;;;21.30;56.60;21.00;96328.00;;;;6106799;23;20181;-82
2023/06/02 07:20:11;;;;;;;3.20;2.90;;;21.40;56.30;21.10;96316.00;;;;6105920;23;20217;-82
2023/06/02 07:22:39;;;;;;;3.47;2.93;;;21.60;56.30;21.30;96318.00;;;;6105854;23;20206;-82
2023/06/02 07:25:09;;;;;;;3.57;2.97;;;21.70;56.10;21.40;96319.00;;;;6131460;23;20203;-82
2023/06/02 07:27:38;;;;;;;3.57;3.27;;;21.80;55.80;21.60;96328.00;;;;6104437;23;20186;-82
2023/06/02 07:30:07;;;;;;;3.77;2.93;;;22.00;55.90;21.70;96324.00;;;;6081423;23;20650;-79
2023/06/02 07:32:34;;;;;;;4.60;2.87;;;22.10;55.90;21.90;96327.00;;;;6134037;23;20195;-82
2023/06/02 07:35:02;;;;;;;4.47;2.87;;;22.20;55.30;22.10;96318.00;;;;6108566;23;20243;-82
2023/06/02 07:37:29;;;;;;;3.57;3.07;;;22.40;55.00;22.20;96324.00;;;;6135580;23;20260;-82
2023/06/02 07:39:57;;;;;;;2.70;2.50;;;22.50;55.60;22.40;96320.00;;;;6086670;23;20198;-82
2023/06/02 07:42:26;;;;;;;4.13;2.70;;;22.70;54.90;22.50;96325.00;;;;6138567;23;20205;-81
2023/06/02 07:44:54;;;;;;;3.20;2.90;;;22.90;54.60;22.70;96332.00;;;;6138036;23;20208;-82
2023/06/02 07:47:23;;;;;;;3.20;2.90;;;23.00;54.30;22.80;96328.00;;;;6138017;23;20254;-82
2023/06/02 07:49:50;;;;;;;3.10;2.80;;;23.20;54.20;23.00;96329.00;;;;6112386;23;20175;-81
2023/06/02 07:52:18;;;;;;;2.60;2.37;;;23.30;54.40;23.10;96332.00;;;;6140111;23;20176;-82
2023/06/02 07:54:45;;;;;;;3.40;2.80;;;23.50;53.80;23.30;96334.00;;;;6138884;23;20206;-80
2023/06/02 07:57:13;;;;;;;3.50;3.20;;;23.60;53.50;23.40;96335.00;;;;6137883;23;20693;-82
2023/06/02 07:59:41;;;;;;;3.67;2.60;;;23.70;52.90;23.60;96335.00;;;;6142529;23;20215;-81
2023/06/02 08:02:16;;;;;;;3.03;2.83;;;23.90;52.60;23.70;96335.00;;;;6141878;23;20193;-82
2023/06/02 08:04:47;;;;;;;3.10;2.80;;;24.10;52.70;23.90;96334.00;;;;6115714;23;20197;-82
2023/06/02 08:07:14;;;;;;;3.20;2.60;;;24.20;52.30;24.10;96337.00;;;;6144230;23;20198;-81
2023/06/02 08:09:41;;;;;;;3.23;2.83;;;24.40;52.40;24.20;96345.00;;;;6142055;23;20190;-81
2023/06/02 08:12:09;;;;;;;4.07;3.00;;;24.50;52.30;24.40;96335.00;;;;6145124;23;20182;-83
2023/06/02 08:14:37;;;;;;;4.17;2.87;;;24.70;52.40;24.60;96339.00;;;;6117384;23;20217;-83
2023/06/02 08:17:06;;;;;;;3.00;2.73;;;24.80;51.40;24.70;96339.00;;;;6143944;23;20174;-81
2023/06/02 08:19:35;;;;;;;3.53;3.23;;;25.00;51.00;24.90;96339.00;;;;6110033;23;20183;-82
2023/06/02 08:22:02;;;;;;;4.73;3.30;;;25.10;50.80;25.10;96341.00;;;;6132259;23;20641;-85
2023/06/02 08:24:29;;;;;;;4.00;2.97;;;25.30;50.80;25.20;96344.00;;;;6128841;23;20261;-84
2023/06/02 08:26:57;;;;;;;3.83;3.20;;;25.40;50.50;25.40;96343.00;;;;6131306;23;20233;-81
2023/06/02 08:29:26;;;;;;;3.40;3.10;;;25.60;50.40;25.50;96342.00;;;;6129090;23;20226;-86
2023/06/02 08:31:54;;;;;;;3.83;2.97;;;25.70;50.00;25.60;96338.00;;;;6126619;23;20253;-84
2023/06/02 08:34:24;;;;;;;3.40;2.90;;;25.80;50.00;25.70;96344.00;;;;6128981;23;20603;-82
2023/06/02 08:36:56;;;;;;;3.10;2.80;;;26.00;49.60;25.90;96343.00;;;;6129745;23;20225;-83
2023/06/02 08:39:25;;;;;;;3.50;3.13;;;26.10;49.40;26.00;96342.00;;;;6126418;23;20214;-83
2023/06/02 08:41:55;;;;;;;10.73;2.63;;;26.30;49.50;26.10;96340.00;;;;6100408;23;20175;-83
2023/06/02 08:44:23;;;;;;;8.80;2.80;;;26.30;49.10;26.20;96346.00;;;;6125263;23;20191;-84
2023/06/02 08:46:52;;;;;;;3.40;2.93;;;26.50;48.60;26.30;96344.00;;;;6102877;23;20277;-83
2023/06/02 08:49:24;;;;;;;4.07;3.10;;;26.60;48.30;26.50;96355.00;;;;6102687;23;20174;-82
2023/06/02 08:52:00;;;;;;;5.80;3.20;;;26.70;48.50;26.60;96350.00;;;;6129517;23;20186;-83
2023/06/02 08:54:36;;;;;;;2.70;2.50;;;26.80;47.90;26.70;96357.00;;;;6128203;23;20534;-86
2023/06/02 08:57:05;;;;;;;3.60;2.60;;;27.00;47.80;26.80;96348.00;;;;6129663;23;20163;-86
2023/06/02 08:59:33;;;;;;;3.07;2.80;;;27.10;47.30;26.90;96347.00;;;;6105178;23;20179;-84
2023/06/02 09:02:01;;;;;;;3.55;2.80;;;27.20;47.20;27.10;96347.00;;;;6130901;23;20567;-83
2023/06/02 09:04:32;;;;;;;3.63;3.00;;;27.30;47.10;27.20;96349.00;;;;6082110;23;20666;-83
2023/06/02 09:07:20;;;;;;;3.28;2.85;;;27.40;47.80;27.30;96356.00;;;;6107521;23;20720;-83
2023/06/02 09:09:51;;;;;;;4.03;2.83;;;27.60;46.50;27.40;96357.00;;;;6106702;23;20215;-82
2023/06/02 09:12:19;;;;;;;4.82;2.83;;;27.70;46.60;27.50;96358.00;;;;6106849;23;20155;-83
2023/06/02 09:14:48;;;;;;;2.80;2.60;;;27.80;46.40;27.70;96355.00;;;;6130402;23;20689;-84
2023/06/02 09:17:28;;;;;;;4.53;2.60;;;27.90;46.20;27.80;96358.00;;;;6100048;23;20171;-83
2023/06/02 09:20:00;;;;;;;3.13;2.78;;;28.10;45.50;27.90;96362.00;;;;6100073;23;20236;-84
2023/06/02 09:22:28;;;;;;;3.17;2.50;;;28.20;45.80;28.10;96359.00;;;;6126102;23;20163;-83
2023/06/02 09:24:56;;;;;;;2.78;2.45;;;28.40;46.00;28.20;96359.00;;;;6100544;23;20222;-83
2023/06/02 09:27:25;;;;;;;2.70;2.50;;;28.50;45.70;28.40;96354.00;;;;6099716;23;20274;-83
2023/06/02 09:30:03;;;;;;;3.22;2.92;;;28.70;45.80;28.50;96367.00;;;;6077028;23;20174;-84
2023/06/02 09:32:30;;;;;;;2.83;2.63;;;28.90;45.10;28.70;96356.00;;;;6099914;23;20211;-85
2023/06/02 09:35:01;;;;;;;2.97;2.70;;;29.10;45.40;28.90;96360.00;;;;6125979;23;20222;-83
2023/06/02 09:37:28;;;;;;;3.38;3.00;;;29.30;45.20;29.00;96367.00;;;;6124409;23;20254;-84
2023/06/02 09:40:01;;;;;;;2.65;2.45;;;29.50;44.80;29.20;96364.00;;;;6125413;23;20170;-84
2023/06/02 09:42:28;;;;;;;3.15;2.85;;;29.80;44.90;29.40;96363.00;;;;6101816;23;20159;-83
2023/06/02 09:45:07;;;;;;;3.95;3.13;;;30.00;44.90;29.60;96374.00;;;;6100180;23;20190;-84
2023/06/02 09:47:40;;;;;;;3.65;3.25;;;30.30;43.50;29.80;96373.00;;;;6124243;23;20213;-83
2023/06/02 09:50:11;;;;;;;4.05;2.80;;;30.50;43.70;30.00;96366.00;;;;6125705;23;20163;-84
2023/06/02 09:52:39;;;;;;;3.47;2.83;;;30.70;43.20;30.10;96366.00;;;;6101776;23;20155;-84
2023/06/02 09:55:09;;;;;;;4.03;2.83;;;30.90;42.90;30.30;96365.00;;;;6099992;23;20218;-83
2023/06/02 09:57:38;;;;;;;5.47;2.67;;;31.10;42.40;30.40;96363.00;;;;6099578;23;20171;-85
2023/06/02 10:00:11;;;;;;;3.22;2.90;;;31.30;42.60;30.60;96366.00;;;;6100330;23;20198;-83
2023/06/02 10:02:39;;;;;;;3.03;2.72;;;31.50;42.50;30.70;96366.00;;;;6125578;23;20182;-84
2023/06/02 10:05:09;;;;;;;3.15;2.63;;;31.60;42.30;30.80;96371.00;;;;6075356;23;20209;-84
2023/06/02 10:08:01;;;;;;;2.95;2.72;;;31.90;42.00;31.00;96368.00;;;;6100213;23;20254;-83
2023/06/02 10:10:48;;;;;;;2.67;2.47;;;32.00;39.60;31.10;96371.00;;;;6125393;23;20187;-85
2023/06/02 10:13:36;;;;;;;2.53;2.22;;;32.20;39.60;31.20;96369.00;;;;6099243;23;20190;-85
2023/06/02 10:16:36;;;;;;;2.50;2.30;;;32.30;38.60;31.30;96369.00;;;;6125004;23;20552;-85
2023/06/02 10:19:43;;;;;;;3.40;3.10;;;32.50;37.50;31.40;96367.00;;;;6124358;23;20209;-84
2023/06/02 10:22:45;;;;;;;3.67;2.50;;;32.50;37.30;31.50;96364.00;;;;6125265;23;20206;-84
2023/06/02 10:25:30;;;;;;;2.83;2.42;;;32.60;37.70;31.50;96367.00;;;;6099429;23;20193;-85
2023/06/02 10:27:58;;;;;;;2.58;2.38;;;32.70;37.20;31.60;96370.00;;;;6124178;23;20187;-86
2023/06/02 10:30:26;;;;;;;2.75;2.55;;;32.70;37.50;31.70;96368.00;;;;6125290;23;20175;-84
2023/06/02 10:32:55;;;;;;;2.92;2.72;;;32.70;38.00;31.70;96371.00;;;;6125186;23;20175;-84
2023/06/02 10:35:23;;;;;;;2.65;2.45;;;32.70;37.50;31.80;96366.00;;;;6127092;23;20167;-85
2023/06/02 10:38:31;;;;;;;5.38;2.80;;;32.70;37.10;31.80;96356.00;;;;6105690;23;20183;-86
2023/06/02 10:41:02;;;;;;;2.35;2.15;;;32.70;36.50;31.80;96355.00;;;;6129498;23;20211;-83
2023/06/02 10:43:30;;;;;;;3.67;2.65;;;32.70;37.20;31.80;96353.00;;;;6099595;23;20271;-86
2023/06/02 10:46:21;;;;;;;3.90;3.50;;;32.60;36.10;31.80;96357.00;;;;6126672;23;20562;-83
2023/06/02 10:48:49;;;;;;;2.55;2.35;;;32.50;35.40;31.80;96365.00;;;;6126967;23;20179;-85
2023/06/02 10:51:17;;;;;;;2.45;2.22;;;32.50;36.00;31.70;96357.00;;;;6102411;23;20198;-87
2023/06/02 10:54:17;;;;;;;2.50;2.30;;;32.40;36.00;31.60;96360.00;;;;6127777;23;20222;-88
2023/06/02 10:56:46;;;;;;;2.47;2.30;;;32.30;34.90;31.60;96358.00;;;;6098402;23;20171;-84
2023/06/02 10:59:34;;;;;;;3.08;2.72;;;32.20;36.00;31.50;96344.00;;;;6077196;23;20175;-84
2023/06/02 11:02:02;;;;;;;2.63;2.30;;;32.10;35.70;31.40;96350.00;;;;6100887;23;20202;-84
2023/06/02 11:04:31;;;;;;;3.15;2.85;;;32.00;35.70;31.20;96356.00;;;;6126446;23;20187;-88